Time;durP1;ratioP1;P1;durP2;ratioP2;P2;SDS_P1;SDS_P2;PMS_P1;PMS_P2;Temp;Humidity;BMP_temperature;BMP_pressure;BME280_temperature;BME280_humidity;BME280_pressure;Samples;Min_cycle;Max_cycle;Signal;HPM_P1;HPM_P2
2022/05/10 00:01:04;;;;;;;8.60;5.75;;;17.00;99.90;;;;;;5072645;28;20206;-71
2022/05/10 00:03:34;;;;;;;6.55;5.35;;;16.90;99.90;;;;;;5071809;28;20238;-72
2022/05/10 00:06:02;;;;;;;6.47;5.88;;;16.80;99.90;;;;;;5072518;28;20213;-71
2022/05/10 00:08:29;;;;;;;6.22;5.63;;;16.80;99.90;;;;;;5071619;28;20773;-71
2022/05/10 00:10:56;;;;;;;6.00;5.47;;;16.80;99.90;;;;;;5072228;28;20664;-71
2022/05/10 00:13:24;;;;;;;6.00;5.43;;;16.80;99.90;;;;;;5071862;28;20635;-71
2022/05/10 00:15:53;;;;;;;6.00;5.25;;;16.80;99.90;;;;;;5072076;28;20201;-71
2022/05/10 00:18:23;;;;;;;5.18;4.78;;;16.80;99.90;;;;;;5071666;28;20275;-71
2022/05/10 00:20:50;;;;;;;5.88;5.32;;;16.80;99.90;;;;;;5071913;28;20206;-71
2022/05/10 00:23:17;;;;;;;8.05;5.65;;;16.80;99.90;;;;;;5070443;28;20234;-71
2022/05/10 00:25:44;;;;;;;6.03;5.43;;;16.70;99.90;;;;;;5071829;28;20271;-71
2022/05/10 00:28:12;;;;;;;4.97;4.40;;;16.70;99.90;;;;;;5071424;28;20198;-70
2022/05/10 00:30:39;;;;;;;7.35;5.68;;;16.70;99.90;;;;;;5071843;28;20202;-70
2022/05/10 00:33:08;;;;;;;6.53;5.88;;;16.50;99.90;;;;;;5071917;28;20198;-71
2022/05/10 00:35:35;;;;;;;15.15;7.75;;;16.40;99.90;;;;;;5072051;28;20198;-70
2022/05/10 00:38:05;;;;;;;6.35;5.85;;;16.40;99.90;;;;;;5071728;28;20285;-69
2022/05/10 00:40:34;;;;;;;8.68;5.22;;;16.40;99.90;;;;;;5071243;28;20214;-70
2022/05/10 00:43:11;;;;;;;7.25;4.70;;;16.40;99.90;;;;;;5071633;28;20237;-70
2022/05/10 00:45:46;;;;;;;5.45;4.95;;;16.30;99.90;;;;;;5071439;28;20255;-70
2022/05/10 00:48:22;;;;;;;6.53;5.68;;;16.10;99.90;;;;;;5071058;28;20198;-71
2022/05/10 00:50:54;;;;;;;5.75;5.25;;;16.00;99.90;;;;;;5071175;28;20202;-70
2022/05/10 00:53:26;;;;;;;5.80;5.20;;;15.90;99.90;;;;;;5071146;28;20252;-70
2022/05/10 00:55:59;;;;;;;5.57;5.07;;;15.80;99.90;;;;;;5071164;28;20198;-70
2022/05/10 00:58:40;;;;;;;4.60;4.20;;;15.80;99.90;;;;;;5070897;28;20206;-71
2022/05/10 01:01:09;;;;;;;6.07;5.47;;;15.80;99.90;;;;;;5071202;28;20612;-70
2022/05/10 01:03:45;;;;;;;5.95;5.25;;;15.80;99.90;;;;;;5071130;28;20229;-70
2022/05/10 01:06:19;;;;;;;5.10;4.60;;;15.80;99.90;;;;;;5069478;28;20214;-70
2022/05/10 01:08:52;;;;;;;5.88;5.38;;;15.70;99.90;;;;;;5071060;28;20616;-69
2022/05/10 01:11:25;;;;;;;6.22;5.63;;;15.70;99.90;;;;;;5070627;28;20260;-70
2022/05/10 01:13:56;;;;;;;7.13;6.30;;;15.80;99.90;;;;;;5071135;28;20207;-70
2022/05/10 01:16:25;;;;;;;6.22;5.57;;;15.80;99.90;;;;;;5070484;28;20728;-70
2022/05/10 01:18:54;;;;;;;5.50;5.10;;;15.90;99.90;;;;;;5070843;28;20206;-70
2022/05/10 01:21:37;;;;;;;5.25;4.82;;;15.90;99.90;;;;;;5070503;28;20319;-70
2022/05/10 01:24:31;;;;;;;5.70;5.13;;;15.80;99.90;;;;;;5071046;28;20621;-71
2022/05/10 01:27:22;;;;;;;11.07;5.68;;;15.80;99.90;;;;;;5070622;28;20620;-71
2022/05/10 01:29:56;;;;;;;5.38;4.88;;;15.70;99.90;;;;;;5070826;28;20202;-71
2022/05/10 01:35:20;;;;;;;5.25;4.85;;;15.70;99.90;;;;;;5070089;28;20252;-71
2022/05/10 01:37:52;;;;;;;6.45;5.93;;;15.70;99.90;;;;;;5070843;28;20206;-71
2022/05/10 01:40:25;;;;;;;5.68;5.28;;;15.70;99.90;;;;;;5070199;28;20214;-71
2022/05/10 01:42:58;;;;;;;6.15;5.60;;;15.80;99.90;;;;;;5070667;28;20238;-71
2022/05/10 01:45:35;;;;;;;7.60;5.00;;;15.80;99.90;;;;;;5070207;28;20588;-71
2022/05/10 01:48:04;;;;;;;6.38;5.20;;;15.70;99.90;;;;;;5070918;28;20220;-71
2022/05/10 01:50:38;;;;;;;6.60;5.45;;;15.70;99.90;;;;;;5070538;28;20581;-69
2022/05/10 01:53:08;;;;;;;6.15;5.55;;;15.60;99.90;;;;;;5070980;28;20206;-70
2022/05/10 01:55:37;;;;;;;6.43;5.60;;;15.60;99.90;;;;;;5070814;28;20727;-70
2022/05/10 01:58:09;;;;;;;8.35;5.13;;;15.60;99.90;;;;;;5070798;28;20665;-70
2022/05/10 02:00:39;;;;;;;6.43;5.22;;;15.60;99.90;;;;;;5070438;28;20208;-70
2022/05/10 02:03:13;;;;;;;5.80;5.30;;;15.60;99.90;;;;;;5070671;28;20311;-70
2022/05/10 02:05:49;;;;;;;6.15;5.60;;;15.50;99.90;;;;;;5070294;28;20205;-70
2022/05/10 02:08:26;;;;;;;6.88;5.78;;;15.50;99.90;;;;;;5068994;28;20202;-70
2022/05/10 02:10:56;;;;;;;6.22;5.55;;;15.50;99.90;;;;;;5070250;28;20264;-70
2022/05/10 02:13:29;;;;;;;10.02;6.18;;;15.50;99.90;;;;;;5069735;28;20735;-70
2022/05/10 02:16:02;;;;;;;5.82;5.25;;;15.50;99.90;;;;;;5070413;28;20206;-69
2022/05/10 02:18:35;;;;;;;6.07;5.50;;;15.40;99.90;;;;;;5070111;28;20198;-69
2022/05/10 02:21:09;;;;;;;7.03;5.40;;;15.40;99.90;;;;;;5070648;28;20251;-70
2022/05/10 02:23:42;;;;;;;5.78;5.28;;;15.40;99.90;;;;;;5070622;28;20222;-70
2022/05/10 02:26:13;;;;;;;8.18;5.78;;;15.40;99.90;;;;;;5069752;28;20255;-70
2022/05/10 02:28:46;;;;;;;7.32;6.47;;;15.30;99.90;;;;;;5070337;28;20198;-71
2022/05/10 02:31:21;;;;;;;6.63;5.90;;;15.20;99.90;;;;;;5069918;28;20920;-71
2022/05/10 02:33:49;;;;;;;7.03;6.47;;;15.10;99.90;;;;;;5069760;28;20209;-70
2022/05/10 02:36:17;;;;;;;7.53;6.75;;;15.00;99.90;;;;;;5070048;28;20206;-70
2022/05/10 02:38:45;;;;;;;7.43;6.15;;;14.80;99.90;;;;;;5069983;28;20685;-70
2022/05/10 02:41:15;;;;;;;5.63;5.13;;;14.90;99.90;;;;;;5069846;28;20206;-71
2022/05/10 02:43:48;;;;;;;5.40;4.90;;;14.80;99.90;;;;;;5069790;28;20222;-70
2022/05/10 02:46:17;;;;;;;7.55;6.30;;;14.70;99.90;;;;;;5069689;28;20630;-69
2022/05/10 02:48:47;;;;;;;6.15;5.57;;;14.60;99.90;;;;;;5073453;28;20260;-70
2022/05/10 02:51:15;;;;;;;6.40;5.68;;;14.80;99.90;;;;;;5073440;28;20208;-70
2022/05/10 02:53:42;;;;;;;5.90;5.40;;;14.80;99.90;;;;;;5073811;28;20261;-71
2022/05/10 02:56:11;;;;;;;6.22;5.63;;;14.80;99.90;;;;;;5073002;28;20199;-70
2022/05/10 02:58:43;;;;;;;5.88;5.35;;;14.90;99.90;;;;;;5073599;28;20202;-70
2022/05/10 03:01:17;;;;;;;6.97;6.25;;;14.80;99.90;;;;;;5073194;28;20558;-70
2022/05/10 03:03:46;;;;;;;6.68;6.07;;;14.90;99.90;;;;;;5073137;28;20214;-71
2022/05/10 03:06:17;;;;;;;7.63;5.03;;;14.80;99.90;;;;;;5073026;28;20252;-70
2022/05/10 03:08:44;;;;;;;6.30;5.80;;;14.70;99.90;;;;;;5073328;28;20584;-70
2022/05/10 03:11:11;;;;;;;6.60;6.00;;;14.70;99.90;;;;;;5072941;28;20210;-70
2022/05/10 03:13:38;;;;;;;7.30;6.13;;;14.70;99.90;;;;;;5073251;28;20248;-70
2022/05/10 03:16:06;;;;;;;7.30;6.00;;;14.60;99.90;;;;;;5073172;28;20577;-71
2022/05/10 03:18:33;;;;;;;5.75;5.18;;;14.70;99.90;;;;;;5072894;28;20210;-70
2022/05/10 03:21:02;;;;;;;5.85;5.35;;;14.70;99.90;;;;;;5073001;28;20251;-70
2022/05/10 03:23:28;;;;;;;6.35;5.75;;;14.60;99.90;;;;;;5072609;28;20696;-70
2022/05/10 03:25:55;;;;;;;6.53;6.03;;;14.50;99.90;;;;;;5072862;28;20738;-71
2022/05/10 03:28:23;;;;;;;6.60;6.00;;;14.50;99.90;;;;;;5072303;28;20206;-71
2022/05/10 03:30:50;;;;;;;6.70;6.13;;;14.50;99.90;;;;;;5073162;28;20206;-70
2022/05/10 03:33:18;;;;;;;6.70;5.55;;;14.50;99.90;;;;;;5072299;28;20213;-70
2022/05/10 03:35:45;;;;;;;6.03;5.38;;;14.50;99.90;;;;;;5072927;28;20263;-70
2022/05/10 03:38:13;;;;;;;7.20;6.47;;;14.50;99.90;;;;;;5072382;28;20210;-70
2022/05/10 03:40:40;;;;;;;5.97;5.43;;;14.50;99.90;;;;;;5072371;28;20681;-70
2022/05/10 03:43:09;;;;;;;6.30;5.10;;;14.50;99.90;;;;;;5072611;28;20761;-70
2022/05/10 03:45:37;;;;;;;6.38;5.80;;;14.50;99.90;;;;;;5072459;28;20211;-70
2022/05/10 03:48:05;;;;;;;6.22;5.47;;;14.50;99.90;;;;;;5072936;28;20251;-69
2022/05/10 03:50:31;;;;;;;6.05;5.55;;;14.40;99.90;;;;;;5072464;28;20665;-70
2022/05/10 03:52:59;;;;;;;6.03;5.53;;;14.40;99.90;;;;;;5072362;28;20206;-70
2022/05/10 03:55:29;;;;;;;5.68;5.22;;;14.40;99.90;;;;;;5072377;28;20210;-70
2022/05/10 03:57:57;;;;;;;5.80;5.30;;;14.20;99.90;;;;;;5072415;28;20588;-70
2022/05/10 04:00:26;;;;;;;8.35;7.35;;;14.30;99.90;;;;;;5071727;28;20612;-70
2022/05/10 04:02:55;;;;;;;6.65;5.95;;;14.20;99.90;;;;;;5072264;28;20202;-70
2022/05/10 04:05:23;;;;;;;6.70;6.00;;;14.30;99.90;;;;;;5071827;28;20689;-70
2022/05/10 04:07:51;;;;;;;7.03;6.43;;;14.20;99.90;;;;;;5072258;28;20206;-70
2022/05/10 04:10:19;;;;;;;9.82;5.72;;;14.20;99.90;;;;;;5071656;28;20610;-70
2022/05/10 04:12:47;;;;;;;8.50;6.75;;;14.20;99.90;;;;;;5072139;28;20210;-69
2022/05/10 04:15:17;;;;;;;8.02;7.20;;;14.10;99.90;;;;;;5071452;28;20210;-70
2022/05/10 04:17:44;;;;;;;9.80;6.57;;;14.10;99.90;;;;;;5072047;28;20214;-69
2022/05/10 04:20:13;;;;;;;6.68;5.95;;;14.20;99.90;;;;;;5071547;28;20202;-70
2022/05/10 04:22:40;;;;;;;6.60;6.00;;;14.20;99.90;;;;;;5071935;28;20252;-69
2022/05/10 04:25:08;;;;;;;7.88;6.40;;;14.20;99.90;;;;;;5071786;28;20230;-69
2022/05/10 04:27:35;;;;;;;5.97;5.47;;;14.10;99.90;;;;;;5072008;28;20247;-70
2022/05/10 04:30:05;;;;;;;6.88;6.18;;;14.00;99.90;;;;;;5071909;28;20202;-71
2022/05/10 04:32:34;;;;;;;8.10;5.60;;;13.70;99.90;;;;;;5071583;28;20260;-70
2022/05/10 04:35:01;;;;;;;6.38;5.78;;;13.70;99.90;;;;;;5072348;28;20235;-69
2022/05/10 04:37:28;;;;;;;7.10;6.50;;;13.80;99.90;;;;;;5071201;28;20206;-69
2022/05/10 04:42:43;;;;;;;8.68;6.38;;;13.90;99.90;;;;;;5071588;28;20723;-70
2022/05/10 04:45:12;;;;;;;7.10;6.47;;;13.90;99.90;;;;;;5070660;28;20287;-70
2022/05/10 04:47:39;;;;;;;8.27;6.55;;;14.00;99.90;;;;;;5071684;28;20571;-70
2022/05/10 04:50:07;;;;;;;5.90;5.38;;;13.90;99.90;;;;;;5071735;28;20210;-70
2022/05/10 04:52:34;;;;;;;7.60;5.50;;;13.90;99.90;;;;;;5071738;28;20620;-70
2022/05/10 04:55:02;;;;;;;7.75;6.20;;;13.90;99.90;;;;;;5071309;28;20205;-71
2022/05/10 04:57:29;;;;;;;7.95;5.47;;;14.00;99.90;;;;;;5070637;28;20222;-71
2022/05/10 04:59:55;;;;;;;10.90;6.57;;;14.00;99.90;;;;;;5070527;28;20456;-71
2022/05/10 05:02:24;;;;;;;7.00;6.35;;;14.00;99.90;;;;;;5070877;28;20673;-71
2022/05/10 05:04:51;;;;;;;6.00;5.40;;;14.10;99.90;;;;;;5071240;28;20287;-70
2022/05/10 05:07:18;;;;;;;8.25;5.55;;;14.00;99.90;;;;;;5070992;28;20198;-70
2022/05/10 05:09:45;;;;;;;6.70;6.07;;;14.00;99.90;;;;;;5070637;28;20202;-70
2022/05/10 05:12:12;;;;;;;7.18;6.22;;;14.00;99.90;;;;;;5070736;28;20251;-70
2022/05/10 05:14:39;;;;;;;7.78;7.00;;;14.10;99.90;;;;;;5070972;28;20286;-70
2022/05/10 05:17:06;;;;;;;9.45;6.20;;;14.10;99.90;;;;;;5071089;28;20633;-70
2022/05/10 05:19:35;;;;;;;14.63;6.90;;;14.10;99.90;;;;;;5071511;28;20599;-69
2022/05/10 05:22:02;;;;;;;7.32;6.15;;;14.10;99.90;;;;;;5071229;28;20256;-70
2022/05/10 05:24:29;;;;;;;7.72;5.78;;;14.20;99.90;;;;;;5070466;28;20242;-70
2022/05/10 05:26:56;;;;;;;13.38;6.65;;;14.30;99.90;;;;;;5071152;28;20205;-70
2022/05/10 05:29:24;;;;;;;9.27;6.35;;;14.30;99.90;;;;;;5070461;28;20260;-70
2022/05/10 05:31:52;;;;;;;12.05;6.93;;;14.40;99.90;;;;;;5070949;28;20206;-70
2022/05/10 05:34:20;;;;;;;9.40;6.18;;;14.50;99.90;;;;;;5070462;28;20203;-70
2022/05/10 05:37:32;;;;;;;7.10;6.43;;;14.50;99.90;;;;;;5070880;28;20210;-70
2022/05/10 05:39:35;;;;;;;10.25;7.05;;;14.50;99.90;;;;;;5070741;28;20749;-70
2022/05/10 05:42:02;;;;;;;7.90;6.28;;;14.60;99.90;;;;;;5070789;28;20285;-70
2022/05/10 05:44:29;;;;;;;8.05;6.80;;;14.80;99.90;;;;;;5070196;28;20230;-70
2022/05/10 05:46:57;;;;;;;7.53;6.65;;;14.70;99.90;;;;;;5070649;28;20561;-69
2022/05/10 05:49:25;;;;;;;7.45;6.72;;;14.70;99.90;;;;;;5070053;28;20202;-70
2022/05/10 05:51:57;;;;;;;7.82;6.60;;;14.70;99.90;;;;;;5070625;28;20224;-70
2022/05/10 05:54:24;;;;;;;6.25;5.65;;;14.80;99.90;;;;;;5070270;28;20260;-70
2022/05/10 05:56:51;;;;;;;11.32;7.03;;;15.00;99.90;;;;;;5070623;28;20247;-69
2022/05/10 05:59:18;;;;;;;10.15;6.90;;;14.90;99.90;;;;;;5070126;28;20205;-69
2022/05/10 06:01:45;;;;;;;7.00;6.30;;;15.00;99.90;;;;;;5070602;28;20202;-69
2022/05/10 06:04:12;;;;;;;8.38;6.97;;;15.20;99.90;;;;;;5070495;28;20681;-70
2022/05/10 06:06:39;;;;;;;9.93;7.05;;;15.10;99.90;;;;;;5070564;28;20210;-71
2022/05/10 06:09:07;;;;;;;7.47;6.78;;;15.20;99.90;;;;;;5070580;28;20248;-70
2022/05/10 06:11:34;;;;;;;12.75;7.38;;;15.40;99.90;;;;;;5070826;28;20214;-70
2022/05/10 06:14:01;;;;;;;9.23;7.13;;;15.50;99.90;;;;;;5081736;28;20224;-71
2022/05/10 06:16:29;;;;;;;8.10;7.28;;;15.60;99.90;;;;;;5076048;28;20283;-69
2022/05/10 06:18:56;;;;;;;7.05;6.43;;;15.70;99.90;;;;;;5090008;28;20630;-69
2022/05/10 06:21:23;;;;;;;11.20;6.80;;;15.80;99.90;;;;;;5090082;28;20612;-69
2022/05/10 06:23:50;;;;;;;7.70;6.97;;;15.90;99.90;;;;;;5094373;28;20279;-69
2022/05/10 06:26:18;;;;;;;10.27;6.50;;;16.00;99.90;;;;;;5093951;28;20205;-69
2022/05/10 06:28:45;;;;;;;7.70;6.00;;;16.00;99.90;;;;;;5081947;28;20202;-71
2022/05/10 06:31:12;;;;;;;6.53;5.82;;;16.10;99.90;;;;;;5073204;28;20264;-68
2022/05/10 06:33:39;;;;;;;6.97;5.97;;;16.20;99.90;;;;;;5077322;28;20633;-69
2022/05/10 06:36:06;;;;;;;6.43;5.47;;;16.40;99.90;;;;;;5090104;28;20201;-68
2022/05/10 06:38:34;;;;;;;8.40;6.30;;;16.60;99.90;;;;;;5091004;28;20297;-67
2022/05/10 06:41:04;;;;;;;9.98;6.53;;;16.70;99.90;;;;;;5073617;28;20245;-68
2022/05/10 06:43:35;;;;;;;7.85;7.15;;;16.70;99.90;;;;;;5091383;28;20209;-68
2022/05/10 06:46:04;;;;;;;9.00;6.15;;;16.80;99.90;;;;;;5085491;28;20255;-68
2022/05/10 06:48:31;;;;;;;7.18;6.47;;;16.90;99.90;;;;;;5073346;28;20202;-67
2022/05/10 06:50:58;;;;;;;6.82;5.97;;;16.90;99.90;;;;;;5073922;28;20214;-67
2022/05/10 06:53:26;;;;;;;6.68;6.07;;;17.00;99.90;;;;;;5088148;28;20605;-68
2022/05/10 06:55:53;;;;;;;6.32;5.68;;;17.20;99.90;;;;;;5093906;28;20209;-67
2022/05/10 06:58:20;;;;;;;7.45;6.63;;;17.50;99.90;;;;;;5093423;28;20633;-68
2022/05/10 07:00:49;;;;;;;5.90;5.30;;;17.70;99.90;;;;;;5093601;28;20228;-67
2022/05/10 07:03:18;;;;;;;9.27;5.65;;;17.70;99.90;;;;;;5093317;28;20213;-68
2022/05/10 07:05:46;;;;;;;17.88;6.50;;;17.80;99.90;;;;;;5093548;28;20770;-67
2022/05/10 07:08:13;;;;;;;17.90;9.05;;;17.90;99.90;;;;;;5093352;28;20201;-68
2022/05/10 07:10:40;;;;;;;19.60;6.20;;;18.00;99.90;;;;;;5093487;28;20254;-67
2022/05/10 07:13:07;;;;;;;9.07;6.00;;;18.20;99.90;;;;;;5082172;28;20202;-67
2022/05/10 07:15:35;;;;;;;7.13;5.30;;;18.40;99.90;;;;;;5076471;28;20217;-69
2022/05/10 07:18:03;;;;;;;5.28;4.78;;;18.60;99.90;;;;;;5088445;28;20270;-69
2022/05/10 07:20:30;;;;;;;5.57;5.07;;;18.70;99.90;;;;;;5083975;28;20247;-69
2022/05/10 07:22:57;;;;;;;7.18;5.03;;;18.80;99.90;;;;;;5093594;28;20202;-70
2022/05/10 07:25:25;;;;;;;5.40;4.30;;;19.00;99.90;;;;;;5075099;28;20280;-70
2022/05/10 07:27:53;;;;;;;7.25;5.25;;;19.20;99.90;;;;;;5086657;28;20673;-71
2022/05/10 07:30:20;;;;;;;4.72;4.32;;;19.20;99.90;;;;;;5079742;28;20597;-71
2022/05/10 07:32:47;;;;;;;5.70;5.18;;;19.20;99.90;;;;;;5086273;28;20254;-70
2022/05/10 07:35:16;;;;;;;5.03;4.57;;;19.40;99.90;;;;;;5077834;28;20255;-70
2022/05/10 07:37:44;;;;;;;4.80;4.40;;;19.40;99.90;;;;;;5082129;28;20268;-70
2022/05/10 07:40:12;;;;;;;5.18;4.60;;;19.70;99.90;;;;;;5088851;28;20224;-70
2022/05/10 07:42:41;;;;;;;8.60;4.47;;;19.80;99.90;;;;;;5083399;28;20271;-70
2022/05/10 07:45:10;;;;;;;4.75;4.32;;;19.90;99.90;;;;;;5074957;28;20274;-70
2022/05/10 07:47:39;;;;;;;4.97;4.20;;;20.20;99.90;;;;;;5072676;28;20206;-69
2022/05/10 07:50:07;;;;;;;4.72;4.30;;;20.40;99.90;;;;;;5082445;28;20232;-69
2022/05/10 07:52:36;;;;;;;4.55;3.47;;;20.70;99.90;;;;;;5091672;28;20673;-69
2022/05/10 07:55:03;;;;;;;5.60;4.50;;;20.70;99.90;;;;;;5093270;28;20274;-69
2022/05/10 07:57:30;;;;;;;7.75;4.43;;;20.80;99.90;;;;;;5092556;28;20247;-69
2022/05/10 07:59:57;;;;;;;4.72;4.32;;;20.60;99.90;;;;;;5092638;28;20632;-69
2022/05/10 08:02:24;;;;;;;4.30;3.80;;;20.90;99.90;;;;;;5086265;28;20666;-68
2022/05/10 08:04:51;;;;;;;4.18;3.78;;;21.00;99.90;;;;;;5088530;28;20229;-69
2022/05/10 08:07:18;;;;;;;4.35;4.03;;;21.00;99.90;;;;;;5084914;28;20246;-69
2022/05/10 08:09:46;;;;;;;4.97;4.07;;;21.00;99.90;;;;;;5072502;28;20252;-69
2022/05/10 08:12:13;;;;;;;4.65;4.28;;;21.10;99.90;;;;;;5079400;28;20259;-70
2022/05/10 08:14:40;;;;;;;4.25;3.95;;;21.30;99.90;;;;;;5091267;28;20296;-69
2022/05/10 08:17:07;;;;;;;4.57;3.83;;;21.40;99.90;;;;;;5091456;28;20251;-69
2022/05/10 08:19:34;;;;;;;6.93;4.72;;;21.50;99.90;;;;;;5092604;28;20271;-69
2022/05/10 08:22:02;;;;;;;4.53;3.35;;;21.70;99.90;;;;;;5092609;28;20201;-69
2022/05/10 08:24:29;;;;;;;8.68;3.92;;;21.80;99.90;;;;;;5091278;28;20937;-69
2022/05/10 08:26:57;;;;;;;4.53;3.30;;;22.10;99.90;;;;;;5092256;28;20306;-70
2022/05/10 08:29:24;;;;;;;6.40;3.47;;;22.20;99.90;;;;;;5091622;28;20665;-69
2022/05/10 08:31:51;;;;;;;4.88;3.05;;;22.70;99.90;;;;;;5092108;28;20241;-69
2022/05/10 08:34:19;;;;;;;3.35;2.90;;;22.90;99.90;;;;;;5091511;28;20205;-70
2022/05/10 08:36:46;;;;;;;6.32;3.60;;;22.50;99.90;;;;;;5091865;28;20293;-69
2022/05/10 08:39:13;;;;;;;3.67;3.40;;;22.50;99.90;;;;;;5091551;28;20219;-70
2022/05/10 08:41:46;;;;;;;3.67;3.38;;;22.60;99.90;;;;;;5091700;28;20618;-69
2022/05/10 08:44:17;;;;;;;3.83;3.30;;;22.50;99.90;;;;;;5091002;28;20206;-69
2022/05/10 08:46:46;;;;;;;3.38;2.95;;;22.50;99.90;;;;;;5091645;28;20286;-69
2022/05/10 08:49:20;;;;;;;4.28;3.38;;;22.70;99.90;;;;;;5091065;28;20730;-69
2022/05/10 08:51:47;;;;;;;4.03;3.63;;;23.00;99.90;;;;;;5091281;28;20288;-69
2022/05/10 08:54:14;;;;;;;4.20;3.90;;;23.00;99.90;;;;;;5086794;28;20611;-69
2022/05/10 08:56:46;;;;;;;5.13;3.95;;;23.20;99.90;;;;;;5087962;28;20264;-69
2022/05/10 08:59:27;;;;;;;4.13;3.28;;;23.60;99.90;;;;;;5091135;28;20240;-70
2022/05/10 09:02:00;;;;;;;8.10;3.83;;;23.60;99.90;;;;;;5091408;28;20201;-72
2022/05/10 09:04:45;;;;;;;3.63;3.13;;;23.40;99.90;;;;;;5089422;28;20209;-69
2022/05/10 09:07:21;;;;;;;3.47;3.17;;;23.60;99.90;;;;;;5090906;28;20243;-70
2022/05/10 09:10:05;;;;;;;3.20;2.67;;;24.20;99.90;;;;;;5091451;28;20247;-71
2022/05/10 09:12:43;;;;;;;4.15;3.50;;;24.20;99.90;;;;;;5091243;28;20197;-71
2022/05/10 09:15:13;;;;;;;3.78;3.47;;;23.70;99.90;;;;;;5090964;28;20209;-69
2022/05/10 09:17:40;;;;;;;3.17;2.97;;;24.30;99.90;;;;;;5091261;28;20206;-71
2022/05/10 09:20:10;;;;;;;3.13;2.92;;;24.60;99.90;;;;;;5091057;28;20292;-70
2022/05/10 09:23:12;;;;;;;2.97;2.72;;;24.40;99.90;;;;;;5091175;28;20201;-72
2022/05/10 09:25:43;;;;;;;4.00;2.72;;;25.20;99.90;;;;;;5091068;28;20235;-69
2022/05/10 09:28:17;;;;;;;3.10;2.90;;;26.70;99.90;;;;;;5090728;28;20212;-70
2022/05/10 09:34:45;;;;;;;3.53;3.25;;;26.80;99.90;;;;;;5091120;28;20619;-70
2022/05/10 09:36:25;;;;;;;4.05;3.40;;;26.30;99.90;;;;;;5090678;28;20269;-71
2022/05/10 09:39:01;;;;;;;3.38;2.55;;;27.80;99.90;;;;;;5090777;28;20217;-70
2022/05/10 09:41:35;;;;;;;2.83;2.50;;;27.80;99.90;;;;;;5090735;28;20676;-70
2022/05/10 09:44:23;;;;;;;3.42;3.13;;;27.40;99.90;;;;;;5091489;28;20202;-72
2022/05/10 09:46:52;;;;;;;5.72;3.60;;;27.30;99.90;;;;;;5090822;28;20290;-70
2022/05/10 09:49:34;;;;;;;4.97;2.92;;;30.70;99.90;;;;;;5089909;28;20292;-70
2022/05/10 09:52:02;;;;;;;3.15;2.95;;;30.90;99.90;;;;;;5090971;28;20247;-72
2022/05/10 09:54:36;;;;;;;3.40;2.78;;;30.20;99.90;;;;;;5090592;28;20292;-72
2022/05/10 09:57:04;;;;;;;3.08;2.85;;;29.20;99.90;;;;;;5093899;28;20299;-70
2022/05/10 09:59:39;;;;;;;3.15;2.85;;;28.30;99.90;;;;;;5094590;28;20616;-71
2022/05/10 10:02:07;;;;;;;3.92;3.30;;;28.20;99.90;;;;;;5095132;28;20659;-71
2022/05/10 10:04:37;;;;;;;3.25;3.05;;;29.10;99.90;;;;;;5095029;28;20201;-71
2022/05/10 10:07:09;;;;;;;3.60;3.30;;;28.30;99.90;;;;;;5095321;28;20242;-71
2022/05/10 10:09:39;;;;;;;3.53;3.33;;;29.60;99.90;;;;;;5094980;28;20196;-72
2022/05/10 10:12:13;;;;;;;4.30;4.00;;;30.60;99.90;;;;;;5094961;28;20197;-71
2022/05/10 10:14:42;;;;;;;3.45;3.15;;;31.00;99.90;;;;;;5094505;28;20200;-73
2022/05/10 10:17:23;;;;;;;3.67;3.38;;;32.80;99.90;;;;;;5094239;28;20204;-70
2022/05/10 10:19:55;;;;;;;3.63;3.30;;;31.70;99.90;;;;;;5094483;28;20581;-72
2022/05/10 10:22:38;;;;;;;3.22;2.83;;;30.50;99.90;;;;;;5094231;28;20209;-70
2022/05/10 10:25:10;;;;;;;4.40;3.67;;;31.70;99.90;;;;;;5094694;28;20209;-72
2022/05/10 10:27:44;;;;;;;3.78;3.35;;;32.70;99.90;;;;;;5094518;28;20201;-71
2022/05/10 10:30:22;;;;;;;3.92;3.30;;;31.70;99.90;;;;;;5094060;28;20200;-71
2022/05/10 10:32:55;;;;;;;3.42;3.20;;;28.90;99.90;;;;;;5094255;28;20201;-70
2022/05/10 10:35:40;;;;;;;4.70;2.83;;;27.50;99.90;;;;;;5093848;28;20232;-70
2022/05/10 10:38:17;;;;;;;3.75;3.38;;;26.20;99.90;;;;;;5094188;28;20201;-72
2022/05/10 10:40:49;;;;;;;4.45;3.03;;;26.50;99.90;;;;;;5094088;28;20213;-70
2022/05/10 10:43:23;;;;;;;4.55;3.05;;;26.50;99.90;;;;;;5093763;28;20262;-71
2022/05/10 10:45:53;;;;;;;3.15;2.83;;;26.10;99.90;;;;;;5093705;28;20696;-70
2022/05/10 10:48:40;;;;;;;5.30;2.95;;;26.50;99.90;;;;;;5093436;28;20205;-71
2022/05/10 10:51:09;;;;;;;5.45;2.78;;;26.40;99.90;;;;;;5094060;28;20205;-70
2022/05/10 10:53:38;;;;;;;3.17;2.97;;;26.70;99.90;;;;;;5094404;28;20205;-70
2022/05/10 10:56:35;;;;;;;3.30;3.05;;;26.60;99.90;;;;;;5090359;28;20574;-71
2022/05/10 10:59:20;;;;;;;3.08;2.78;;;26.80;99.90;;;;;;5094225;28;20241;-69
2022/05/10 11:02:02;;;;;;;2.95;2.75;;;27.00;99.90;;;;;;5093706;28;20205;-71
2022/05/10 11:04:56;;;;;;;3.47;3.20;;;27.00;99.90;;;;;;5093446;28;20198;-69
2022/05/10 11:07:34;;;;;;;4.45;3.25;;;27.10;99.90;;;;;;5092586;28;20233;-69
2022/05/10 11:10:07;;;;;;;3.13;2.90;;;27.10;99.90;;;;;;5093851;28;20293;-70
2022/05/10 11:12:48;;;;;;;3.70;3.45;;;26.80;99.90;;;;;;5093569;28;20205;-70
2022/05/10 11:15:32;;;;;;;2.92;2.72;;;27.10;99.90;;;;;;5092921;28;20224;-69
2022/05/10 11:18:25;;;;;;;3.33;3.08;;;27.20;99.90;;;;;;5093496;28;20202;-69
2022/05/10 11:21:02;;;;;;;3.20;2.95;;;27.40;99.90;;;;;;5093410;28;20205;-70
2022/05/10 11:23:35;;;;;;;3.08;2.72;;;27.50;99.90;;;;;;5092862;28;20626;-69
2022/05/10 11:26:17;;;;;;;5.32;3.35;;;27.60;99.90;;;;;;5093394;28;20757;-70
2022/05/10 11:29:05;;;;;;;3.50;3.20;;;27.50;99.90;;;;;;5093254;28;20677;-70
2022/05/10 11:31:40;;;;;;;2.95;2.60;;;27.50;99.90;;;;;;5089169;28;20225;-70
2022/05/10 11:34:28;;;;;;;3.45;2.38;;;27.20;99.90;;;;;;5093230;28;20201;-70
2022/05/10 11:36:59;;;;;;;2.75;2.55;;;27.50;99.90;;;;;;5092971;28;20258;-69
2022/05/10 11:39:53;;;;;;;4.45;3.15;;;27.80;99.90;;;;;;5092463;28;20224;-69
2022/05/10 11:42:32;;;;;;;2.13;2.03;;;28.00;99.90;;;;;;5092586;28;20205;-69
2022/05/10 11:45:47;;;;;;;2.92;2.65;;;27.90;99.90;;;;;;5092884;28;20284;-69
2022/05/10 11:48:36;;;;;;;4.60;2.75;;;28.00;99.90;;;;;;5092455;28;20244;-70
2022/05/10 11:51:42;;;;;;;2.53;2.33;;;27.90;99.90;;;;;;5092914;28;20633;-69
2022/05/10 11:54:42;;;;;;;2.30;2.10;;;27.80;99.90;;;;;;5092537;28;20197;-70
2022/05/10 11:57:12;;;;;;;4.20;3.50;;;27.80;99.90;;;;;;5092602;28;20318;-70
2022/05/10 11:59:41;;;;;;;3.00;2.17;;;27.70;99.90;;;;;;5092575;28;20237;-70
2022/05/10 12:02:45;;;;;;;3.22;2.90;;;27.60;99.90;;;;;;5092385;28;20202;-71
2022/05/10 12:05:31;;;;;;;3.05;2.75;;;27.50;99.90;;;;;;5092312;28;20230;-71
2022/05/10 12:08:01;;;;;;;2.53;2.00;;;27.70;99.90;;;;;;5092580;28;20255;-69
2022/05/10 12:10:42;;;;;;;2.70;2.50;;;28.00;99.90;;;;;;5092190;28;20666;-70
2022/05/10 12:13:11;;;;;;;2.90;2.70;;;28.10;99.90;;;;;;5091675;28;20296;-71
2022/05/10 12:21:57;;;;;;;2.40;2.25;;;28.50;99.90;;;;;;5092379;28;20283;-70
2022/05/10 12:24:32;;;;;;;2.53;2.33;;;28.30;99.90;;;;;;5091475;28;20344;-70
2022/05/10 12:27:21;;;;;;;2.53;2.40;;;28.20;99.90;;;;;;5092028;28;20239;-70
2022/05/10 12:30:27;;;;;;;2.40;2.20;;;28.30;99.90;;;;;;5091851;28;20198;-70
2022/05/10 12:32:53;;;;;;;2.60;2.40;;;28.20;99.90;;;;;;5090466;28;20245;-71
2022/05/10 12:35:54;;;;;;;3.33;2.65;;;28.10;99.90;;;;;;5091609;28;20235;-73
2022/05/10 12:38:43;;;;;;;2.13;2.03;;;28.10;99.90;;;;;;5091395;28;20689;-71
2022/05/10 12:41:26;;;;;;;2.25;2.05;;;28.00;99.90;;;;;;5091369;28;20665;-70
2022/05/10 12:44:09;;;;;;;2.30;2.20;;;27.90;99.90;;;;;;5091684;28;20236;-70
2022/05/10 12:46:48;;;;;;;1.90;1.75;;;28.10;99.90;;;;;;5091762;28;20225;-70
2022/05/10 12:49:28;;;;;;;3.13;2.65;;;28.40;99.90;;;;;;5091285;28;20233;-71
2022/05/10 12:52:12;;;;;;;3.20;2.30;;;28.50;99.90;;;;;;5091648;28;20246;-69
2022/05/10 12:54:43;;;;;;;3.92;3.05;;;28.20;99.90;;;;;;5091790;28;20204;-69
2022/05/10 12:57:17;;;;;;;8.23;3.05;;;28.50;99.90;;;;;;5091057;28;20201;-69
2022/05/10 12:59:56;;;;;;;2.22;2.00;;;28.60;99.90;;;;;;5091539;28;20236;-70
2022/05/10 13:02:27;;;;;;;2.50;1.90;;;28.50;99.90;;;;;;5091124;28;20300;-69
2022/05/10 13:04:58;;;;;;;2.22;2.10;;;28.30;99.90;;;;;;5091458;28;20205;-69
2022/05/10 13:07:47;;;;;;;3.65;2.33;;;28.30;99.90;;;;;;5090886;28;20290;-69
2022/05/10 13:10:20;;;;;;;2.25;2.05;;;28.40;99.90;;;;;;5090994;28;20236;-69
2022/05/10 13:12:50;;;;;;;2.85;2.65;;;28.70;99.90;;;;;;5091000;28;20206;-71
2022/05/10 13:15:21;;;;;;;2.47;2.13;;;28.70;99.90;;;;;;5090892;28;20233;-69
2022/05/10 13:17:51;;;;;;;2.72;1.65;;;28.90;99.90;;;;;;5091341;28;20651;-69
2022/05/10 13:20:22;;;;;;;2.50;1.85;;;29.10;99.90;;;;;;5091239;28;20284;-69
2022/05/10 13:22:52;;;;;;;2.50;2.30;;;28.90;99.90;;;;;;5091158;28;20241;-68
2022/05/10 13:25:30;;;;;;;2.28;1.80;;;29.50;99.90;;;;;;5091046;28;20202;-71